sensor_id;sensor_type;location;lat;lon;timestamp;pressure;altitude;pressure_sealevel;temperature;humidity
51261;BME280;61705;46.228;24.812;2023-05-08T00:00:45;97672.19;;;12.29;94.02
51261;BME280;61705;46.228;24.812;2023-05-08T00:03:12;97664.41;;;12.26;94.61
51261;BME280;61705;46.228;24.812;2023-05-08T00:05:42;97661.44;;;12.32;94.86
51261;BME280;61705;46.228;24.812;2023-05-08T00:08:08;97663.78;;;12.39;95.23
51261;BME280;61705;46.228;24.812;2023-05-08T00:10:35;97654.03;;;12.39;95.27
51261;BME280;61705;46.228;24.812;2023-05-08T00:13:02;97652.31;;;12.38;95.61
51261;BME280;61705;46.228;24.812;2023-05-08T00:15:29;97645.28;;;12.37;95.83
51261;BME280;61705;46.228;24.812;2023-05-08T00:17:56;97641.25;;;12.30;95.62
51261;BME280;61705;46.228;24.812;2023-05-08T00:20:22;97637.75;;;12.29;96.10
51261;BME280;61705;46.228;24.812;2023-05-08T00:22:49;97640.56;;;12.26;96.34
51261;BME280;61705;46.228;24.812;2023-05-08T00:25:16;97627.13;;;12.14;96.84
51261;BME280;61705;46.228;24.812;2023-05-08T00:27:42;97630.38;;;12.19;97.01
51261;BME280;61705;46.228;24.812;2023-05-08T00:30:09;97624.59;;;12.28;96.51
51261;BME280;61705;46.228;24.812;2023-05-08T00:32:36;97628.63;;;12.35;96.19
51261;BME280;61705;46.228;24.812;2023-05-08T00:35:03;97635.03;;;12.31;96.42
51261;BME280;61705;46.228;24.812;2023-05-08T00:37:30;97626.16;;;12.32;96.38
51261;BME280;61705;46.228;24.812;2023-05-08T00:39:57;97628.69;;;12.33;96.37
51261;BME280;61705;46.228;24.812;2023-05-08T00:42:23;97628.63;;;12.35;96.61
51261;BME280;61705;46.228;24.812;2023-05-08T00:44:50;97631.28;;;12.35;96.70
51261;BME280;61705;46.228;24.812;2023-05-08T00:47:20;97624.44;;;12.31;96.76
51261;BME280;61705;46.228;24.812;2023-05-08T00:49:47;97620.22;;;12.27;97.19
51261;BME280;61705;46.228;24.812;2023-05-08T00:52:15;97624.81;;;12.23;97.39
51261;BME280;61705;46.228;24.812;2023-05-08T00:54:43;97632.88;;;12.22;97.25
51261;BME280;61705;46.228;24.812;2023-05-08T00:57:10;97627.03;;;12.15;97.28
51261;BME280;61705;46.228;24.812;2023-05-08T00:59:38;97630.53;;;12.16;97.38
51261;BME280;61705;46.228;24.812;2023-05-08T01:02:07;97629.69;;;12.15;97.75
51261;BME280;61705;46.228;24.812;2023-05-08T01:04:35;97627.97;;;12.14;97.69
51261;BME280;61705;46.228;24.812;2023-05-08T01:07:02;97627.81;;;12.17;97.98
51261;BME280;61705;46.228;24.812;2023-05-08T01:09:29;97628.69;;;12.18;97.70
51261;BME280;61705;46.228;24.812;2023-05-08T01:14:54;97626.09;;;12.16;97.59
51261;BME280;61705;46.228;24.812;2023-05-08T01:17:40;97624.63;;;12.11;97.52
51261;BME280;61705;46.228;24.812;2023-05-08T01:20:25;97617.16;;;12.01;97.31
51261;BME280;61705;46.228;24.812;2023-05-08T01:23:13;97621.06;;;11.94;97.51
51261;BME280;61705;46.228;24.812;2023-05-08T01:34:49;97619.97;;;11.81;97.23
51261;BME280;61705;46.228;24.812;2023-05-08T01:37:26;97616.38;;;11.82;96.71
51261;BME280;61705;46.228;24.812;2023-05-08T01:45:54;97624.13;;;11.87;95.65
51261;BME280;61705;46.228;24.812;2023-05-08T01:48:27;97618.94;;;11.83;95.80
51261;BME280;61705;46.228;24.812;2023-05-08T01:51:01;97618.16;;;11.81;95.88
51261;BME280;61705;46.228;24.812;2023-05-08T01:53:33;97621.22;;;11.74;96.43
51261;BME280;61705;46.228;24.812;2023-05-08T01:56:07;97626.19;;;11.80;96.49
51261;BME280;61705;46.228;24.812;2023-05-08T01:58:37;97623.03;;;11.91;95.96
51261;BME280;61705;46.228;24.812;2023-05-08T02:01:04;97628.88;;;11.97;95.33
51261;BME280;61705;46.228;24.812;2023-05-08T02:03:32;97630.25;;;12.04;95.00
51261;BME280;61705;46.228;24.812;2023-05-08T02:06:00;97629.41;;;12.04;94.90
51261;BME280;61705;46.228;24.812;2023-05-08T02:08:28;97626.38;;;11.94;95.48
51261;BME280;61705;46.228;24.812;2023-05-08T02:10:58;97628.94;;;11.96;95.67
51261;BME280;61705;46.228;24.812;2023-05-08T02:13:27;97618.97;;;12.01;95.40
51261;BME280;61705;46.228;24.812;2023-05-08T02:15:56;97627.59;;;12.04;95.26
51261;BME280;61705;46.228;24.812;2023-05-08T02:18:25;97625.25;;;11.98;95.62
51261;BME280;61705;46.228;24.812;2023-05-08T02:20:54;97630.56;;;11.98;95.98
51261;BME280;61705;46.228;24.812;2023-05-08T02:23:24;97622.94;;;11.92;96.36
51261;BME280;61705;46.228;24.812;2023-05-08T02:25:52;97617.31;;;11.98;96.40
51261;BME280;61705;46.228;24.812;2023-05-08T02:28:21;97610.38;;;11.96;96.56
51261;BME280;61705;46.228;24.812;2023-05-08T02:30:50;97615.63;;;11.97;96.43
51261;BME280;61705;46.228;24.812;2023-05-08T02:33:18;97630.31;;;12.03;96.23
51261;BME280;61705;46.228;24.812;2023-05-08T02:35:47;97627.59;;;12.04;96.21
51261;BME280;61705;46.228;24.812;2023-05-08T02:38:18;97619.88;;;12.00;96.31
51261;BME280;61705;46.228;24.812;2023-05-08T02:40:53;97623.63;;;11.96;96.34
51261;BME280;61705;46.228;24.812;2023-05-08T02:43:21;97615.63;;;11.97;96.54
51261;BME280;61705;46.228;24.812;2023-05-08T02:45:51;97628.34;;;12.06;96.12
51261;BME280;61705;46.228;24.812;2023-05-08T02:48:31;97622.31;;;12.04;95.84
51261;BME280;61705;46.228;24.812;2023-05-08T02:51:14;97615.63;;;11.97;96.10
51261;BME280;61705;46.228;24.812;2023-05-08T02:53:54;97615.63;;;11.97;96.32
51261;BME280;61705;46.228;24.812;2023-05-08T02:56:55;97609.47;;;11.97;96.39
51261;BME280;61705;46.228;24.812;2023-05-08T02:59:36;97608.44;;;11.99;96.37
51261;BME280;61705;46.228;24.812;2023-05-08T03:04:38;97608.53;;;11.98;95.77
51261;BME280;61705;46.228;24.812;2023-05-08T03:07:06;97603.13;;;11.99;95.71
51261;BME280;61705;46.228;24.812;2023-05-08T03:09:49;97603.38;;;11.95;95.47
51261;BME280;61705;46.228;24.812;2023-05-08T03:12:21;97597.16;;;11.96;95.24
51261;BME280;61705;46.228;24.812;2023-05-08T03:14:56;97609.13;;;12.03;95.02
51261;BME280;61705;46.228;24.812;2023-05-08T03:17:27;97606.25;;;12.07;94.69
51261;BME280;61705;46.228;24.812;2023-05-08T03:19:59;97608.97;;;12.06;94.63
51261;BME280;61705;46.228;24.812;2023-05-08T03:22:29;97609.38;;;11.98;94.51
51261;BME280;61705;46.228;24.812;2023-05-08T03:24:59;97607.03;;;11.92;94.72
51261;BME280;61705;46.228;24.812;2023-05-08T03:27:27;97602.53;;;11.94;94.92
51261;BME280;61705;46.228;24.812;2023-05-08T03:29:55;97598.94;;;11.95;94.80
51261;BME280;61705;46.228;24.812;2023-05-08T03:32:25;97596.22;;;11.97;94.78
51261;BME280;61705;46.228;24.812;2023-05-08T03:34:54;97608.53;;;11.98;94.83
51261;BME280;61705;46.228;24.812;2023-05-08T03:37:21;97613.97;;;11.95;95.05
51261;BME280;61705;46.228;24.812;2023-05-08T03:39:47;97612.66;;;12.03;94.79
51261;BME280;61705;46.228;24.812;2023-05-08T03:42:14;97615.50;;;12.16;94.65
51261;BME280;61705;46.228;24.812;2023-05-08T03:44:50;97623.28;;;12.19;94.07
51261;BME280;61705;46.228;24.812;2023-05-08T03:47:18;97614.97;;;12.09;94.22
51261;BME280;61705;46.228;24.812;2023-05-08T03:49:46;97619.41;;;12.09;94.59
51261;BME280;61705;46.228;24.812;2023-05-08T03:52:13;97619.94;;;12.16;94.65
51261;BME280;61705;46.228;24.812;2023-05-08T03:54:40;97625.19;;;12.17;94.27
51261;BME280;61705;46.228;24.812;2023-05-08T03:57:07;97628.25;;;12.25;94.01
51261;BME280;61705;46.228;24.812;2023-05-08T04:00:00;97623.75;;;12.27;93.63
51261;BME280;61705;46.228;24.812;2023-05-08T04:02:36;97617.91;;;12.21;93.97
51261;BME280;61705;46.228;24.812;2023-05-08T04:05:21;97622.88;;;12.27;94.09
51261;BME280;61705;46.228;24.812;2023-05-08T04:08:03;97625.63;;;12.25;93.92
51261;BME280;61705;46.228;24.812;2023-05-08T04:10:41;97628.47;;;12.38;93.79
51261;BME280;61705;46.228;24.812;2023-05-08T04:13:12;97625.19;;;12.33;93.41
51261;BME280;61705;46.228;24.812;2023-05-08T04:15:51;97625.31;;;12.47;93.29
51261;BME280;61705;46.228;24.812;2023-05-08T04:18:24;97628.25;;;12.59;93.02
51261;BME280;61705;46.228;24.812;2023-05-08T04:20:54;97620.63;;;12.68;92.44
51261;BME280;61705;46.228;24.812;2023-05-08T04:23:22;97617.72;;;12.57;92.41
51261;BME280;61705;46.228;24.812;2023-05-08T04:25:51;97624.66;;;12.60;92.28
51261;BME280;61705;46.228;24.812;2023-05-08T04:28:19;97624.56;;;12.61;92.39
51261;BME280;61705;46.228;24.812;2023-05-08T04:30:47;97622.38;;;12.69;92.58
51261;BME280;61705;46.228;24.812;2023-05-08T04:33:15;97635.00;;;12.64;92.53
51261;BME280;61705;46.228;24.812;2023-05-08T04:35:44;97636.53;;;12.52;92.63
51261;BME280;61705;46.228;24.812;2023-05-08T04:38:11;97628.31;;;12.41;93.05
51261;BME280;61705;46.228;24.812;2023-05-08T04:40:38;97637.72;;;12.47;93.22
51261;BME280;61705;46.228;24.812;2023-05-08T04:43:04;97640.00;;;12.37;93.13
51261;BME280;61705;46.228;24.812;2023-05-08T04:45:31;97641.19;;;12.31;93.33
51261;BME280;61705;46.228;24.812;2023-05-08T04:48:01;97642.63;;;12.37;93.29
51261;BME280;61705;46.228;24.812;2023-05-08T04:50:28;97639.06;;;12.38;93.52
51261;BME280;61705;46.228;24.812;2023-05-08T04:52:54;97642.84;;;12.50;93.23
51261;BME280;61705;46.228;24.812;2023-05-08T04:55:22;97641.84;;;12.52;93.07
51261;BME280;61705;46.228;24.812;2023-05-08T04:57:49;97641.22;;;12.47;92.85
51261;BME280;61705;46.228;24.812;2023-05-08T05:00:16;97640.91;;;12.69;92.63
51261;BME280;61705;46.228;24.812;2023-05-08T05:02:42;97639.44;;;12.64;91.99
51261;BME280;61705;46.228;24.812;2023-05-08T05:05:09;97643.63;;;12.68;92.04
51261;BME280;61705;46.228;24.812;2023-05-08T05:07:37;97649.63;;;12.71;91.77
51261;BME280;61705;46.228;24.812;2023-05-08T05:10:04;97652.63;;;12.65;91.85
51261;BME280;61705;46.228;24.812;2023-05-08T05:12:31;97648.28;;;12.80;91.87
51261;BME280;61705;46.228;24.812;2023-05-08T05:14:57;97648.72;;;12.88;91.42
51261;BME280;61705;46.228;24.812;2023-05-08T05:17:24;97645.38;;;13.00;90.78
51261;BME280;61705;46.228;24.812;2023-05-08T05:19:51;97650.44;;;13.21;90.11
51261;BME280;61705;46.228;24.812;2023-05-08T05:22:18;97655.34;;;13.28;89.92
51261;BME280;61705;46.228;24.812;2023-05-08T05:24:45;97668.94;;;13.07;89.65
51261;BME280;61705;46.228;24.812;2023-05-08T05:27:12;97665.66;;;12.86;89.87
51261;BME280;61705;46.228;24.812;2023-05-08T05:29:38;97662.41;;;12.80;90.27
51261;BME280;61705;46.228;24.812;2023-05-08T05:32:05;97665.91;;;12.81;90.19
51261;BME280;61705;46.228;24.812;2023-05-08T05:34:32;97667.38;;;12.87;90.06
51261;BME280;61705;46.228;24.812;2023-05-08T05:36:59;97663.06;;;12.68;89.70
51261;BME280;61705;46.228;24.812;2023-05-08T05:39:26;97668.03;;;12.74;89.77
51261;BME280;61705;46.228;24.812;2023-05-08T05:41:53;97667.44;;;12.85;89.84
51261;BME280;61705;46.228;24.812;2023-05-08T05:44:19;97663.09;;;12.84;89.53
51261;BME280;61705;46.228;24.812;2023-05-08T05:46:46;97664.09;;;12.81;89.11
51261;BME280;61705;46.228;24.812;2023-05-08T05:49:13;97652.72;;;12.95;89.13
51261;BME280;61705;46.228;24.812;2023-05-08T05:51:39;97651.63;;;13.15;88.53
51261;BME280;61705;46.228;24.812;2023-05-08T05:54:06;97646.06;;;13.36;87.73
51261;BME280;61705;46.228;24.812;2023-05-08T05:56:33;97640.41;;;13.58;87.12
51261;BME280;61705;46.228;24.812;2023-05-08T05:58:59;97640.66;;;13.83;86.43
51261;BME280;61705;46.228;24.812;2023-05-08T06:01:26;97639.97;;;14.10;85.43
51261;BME280;61705;46.228;24.812;2023-05-08T06:03:54;97640.25;;;14.19;84.91
51261;BME280;61705;46.228;24.812;2023-05-08T06:06:21;97636.09;;;14.44;84.23
51261;BME280;61705;46.228;24.812;2023-05-08T06:08:48;97637.31;;;14.38;83.05
51261;BME280;61705;46.228;24.812;2023-05-08T06:11:14;97635.28;;;14.58;82.77
51261;BME280;61705;46.228;24.812;2023-05-08T06:13:41;97641.06;;;14.50;82.85
51261;BME280;61705;46.228;24.812;2023-05-08T06:16:09;97650.81;;;14.35;83.40
51261;BME280;61705;46.228;24.812;2023-05-08T06:18:36;97655.91;;;14.10;83.62
51261;BME280;61705;46.228;24.812;2023-05-08T06:21:02;97651.56;;;14.09;84.05
51261;BME280;61705;46.228;24.812;2023-05-08T06:23:29;97654.47;;;14.18;83.73
51261;BME280;61705;46.228;24.812;2023-05-08T06:25:56;97648.25;;;14.19;83.67
51261;BME280;61705;46.228;24.812;2023-05-08T06:28:23;97647.19;;;14.22;83.79
51261;BME280;61705;46.228;24.812;2023-05-08T06:30:51;97636.66;;;14.20;83.56
51261;BME280;61705;46.228;24.812;2023-05-08T06:33:18;97653.81;;;14.15;83.58
51261;BME280;61705;46.228;24.812;2023-05-08T06:35:48;97646.78;;;14.14;83.47
51261;BME280;61705;46.228;24.812;2023-05-08T06:38:15;97644.91;;;14.16;83.68
51261;BME280;61705;46.228;24.812;2023-05-08T06:40:43;97655.88;;;13.95;84.01
51261;BME280;61705;46.228;24.812;2023-05-08T06:43:10;97653.53;;;14.05;83.97
51261;BME280;61705;46.228;24.812;2023-05-08T06:45:38;97661.97;;;14.12;83.87
51261;BME280;61705;46.228;24.812;2023-05-08T06:48:05;97652.09;;;14.14;83.72
51261;BME280;61705;46.228;24.812;2023-05-08T06:50:36;97649.56;;;14.27;83.40
51261;BME280;61705;46.228;24.812;2023-05-08T06:53:03;97663.59;;;14.29;83.26
51261;BME280;61705;46.228;24.812;2023-05-08T06:55:30;97661.84;;;14.29;83.18
51261;BME280;61705;46.228;24.812;2023-05-08T06:57:57;97658.69;;;14.22;83.37
51261;BME280;61705;46.228;24.812;2023-05-08T07:00:24;97663.53;;;14.30;83.35
51261;BME280;61705;46.228;24.812;2023-05-08T07:02:51;97656.41;;;14.45;82.75
51261;BME280;61705;46.228;24.812;2023-05-08T07:05:17;97654.06;;;14.69;81.92
51261;BME280;61705;46.228;24.812;2023-05-08T07:07:45;97652.63;;;14.92;81.14
51261;BME280;61705;46.228;24.812;2023-05-08T07:10:12;97653.09;;;15.40;79.62
51261;BME280;61705;46.228;24.812;2023-05-08T07:12:39;97647.19;;;15.76;78.85
51261;BME280;61705;46.228;24.812;2023-05-08T07:15:08;97646.09;;;15.79;77.92
51261;BME280;61705;46.228;24.812;2023-05-08T07:17:50;97652.63;;;15.87;78.22
51261;BME280;61705;46.228;24.812;2023-05-08T07:20:17;97652.91;;;15.70;78.38
51261;BME280;61705;46.228;24.812;2023-05-08T07:22:43;97662.50;;;15.46;79.26
51261;BME280;61705;46.228;24.812;2023-05-08T07:25:10;97659.53;;;15.50;78.84
51261;BME280;61705;46.228;24.812;2023-05-08T07:27:38;97654.19;;;15.50;78.67
51261;BME280;61705;46.228;24.812;2023-05-08T07:30:05;97660.81;;;15.57;78.41
51261;BME280;61705;46.228;24.812;2023-05-08T07:32:32;97664.63;;;15.68;77.75
51261;BME280;61705;46.228;24.812;2023-05-08T07:34:59;97654.66;;;15.84;77.33
51261;BME280;61705;46.228;24.812;2023-05-08T07:37:28;97653.59;;;15.86;76.37
51261;BME280;61705;46.228;24.812;2023-05-08T07:39:54;97650.06;;;15.86;76.29
51261;BME280;61705;46.228;24.812;2023-05-08T07:42:21;97656.59;;;15.95;75.93
51261;BME280;61705;46.228;24.812;2023-05-08T07:44:48;97649.78;;;16.03;75.64
51261;BME280;61705;46.228;24.812;2023-05-08T07:47:21;97655.78;;;16.07;75.43
51261;BME280;61705;46.228;24.812;2023-05-08T07:49:47;97641.88;;;16.02;75.30
51261;BME280;61705;46.228;24.812;2023-05-08T07:52:14;97639.53;;;16.10;74.91
51261;BME280;61705;46.228;24.812;2023-05-08T07:54:41;97640.41;;;16.23;74.64
51261;BME280;61705;46.228;24.812;2023-05-08T07:57:08;97646.59;;;16.37;74.49
51261;BME280;61705;46.228;24.812;2023-05-08T07:59:34;97640.09;;;16.53;74.26
51261;BME280;61705;46.228;24.812;2023-05-08T08:02:01;97641.41;;;16.48;74.63
51261;BME280;61705;46.228;24.812;2023-05-08T08:04:28;97641.47;;;16.85;73.60
51261;BME280;61705;46.228;24.812;2023-05-08T08:06:55;97638.38;;;16.91;73.10
51261;BME280;61705;46.228;24.812;2023-05-08T08:09:21;97640.81;;;17.07;71.84
51261;BME280;61705;46.228;24.812;2023-05-08T08:11:48;97637.31;;;17.54;71.12
51261;BME280;61705;46.228;24.812;2023-05-08T08:14:15;97637.44;;;17.16;71.27
51261;BME280;61705;46.228;24.812;2023-05-08T08:16:41;97636.31;;;17.07;71.02
51261;BME280;61705;46.228;24.812;2023-05-08T08:19:08;97626.00;;;17.26;70.34
51261;BME280;61705;46.228;24.812;2023-05-08T08:21:41;97623.69;;;17.57;69.33
51261;BME280;61705;46.228;24.812;2023-05-08T08:24:08;97623.34;;;17.50;68.94
51261;BME280;61705;46.228;24.812;2023-05-08T08:26:36;97627.22;;;18.06;67.91
51261;BME280;61705;46.228;24.812;2023-05-08T08:29:03;97619.34;;;18.38;67.27
51261;BME280;61705;46.228;24.812;2023-05-08T08:31:30;97623.97;;;18.36;66.13
51261;BME280;61705;46.228;24.812;2023-05-08T08:33:57;97620.00;;;17.95;66.09
51261;BME280;61705;46.228;24.812;2023-05-08T08:36:23;97618.47;;;17.56;66.75
51261;BME280;61705;46.228;24.812;2023-05-08T08:38:50;97615.22;;;17.63;66.09
51261;BME280;61705;46.228;24.812;2023-05-08T08:41:17;97618.13;;;17.60;64.21
51261;BME280;61705;46.228;24.812;2023-05-08T08:43:44;97615.22;;;17.63;64.76
51261;BME280;61705;46.228;24.812;2023-05-08T08:46:12;97614.16;;;17.66;65.44
51261;BME280;61705;46.228;24.812;2023-05-08T08:48:45;97609.19;;;17.96;65.20
51261;BME280;61705;46.228;24.812;2023-05-08T08:51:21;97606.81;;;18.16;64.31
51261;BME280;61705;46.228;24.812;2023-05-08T08:53:56;97608.56;;;18.39;64.14
51261;BME280;61705;46.228;24.812;2023-05-08T08:56:25;97605.50;;;18.33;64.23
51261;BME280;61705;46.228;24.812;2023-05-08T08:58:56;97598.81;;;18.50;63.45
51261;BME280;61705;46.228;24.812;2023-05-08T09:01:25;97592.47;;;18.28;63.41
51261;BME280;61705;46.228;24.812;2023-05-08T09:03:57;97593.09;;;18.43;62.50
51261;BME280;61705;46.228;24.812;2023-05-08T09:06:25;97587.13;;;18.96;60.98
51261;BME280;61705;46.228;24.812;2023-05-08T09:08:56;97582.59;;;19.51;59.36
51261;BME280;61705;46.228;24.812;2023-05-08T09:11:26;97586.06;;;19.30;58.83
51261;BME280;61705;46.228;24.812;2023-05-08T09:13:54;97583.06;;;19.24;58.48
51261;BME280;61705;46.228;24.812;2023-05-08T09:16:21;97585.06;;;18.77;58.02
51261;BME280;61705;46.228;24.812;2023-05-08T09:18:48;97587.28;;;18.60;59.37
51261;BME280;61705;46.228;24.812;2023-05-08T09:21:15;97594.00;;;18.08;61.57
51261;BME280;61705;46.228;24.812;2023-05-08T09:24:02;97611.31;;;17.80;62.88
51261;BME280;61705;46.228;24.812;2023-05-08T09:26:37;97611.38;;;17.43;62.16
51261;BME280;61705;46.228;24.812;2023-05-08T09:29:15;97642.66;;;16.42;64.08
51261;BME280;61705;46.228;24.812;2023-05-08T09:31:43;97649.19;;;15.85;65.10
51261;BME280;61705;46.228;24.812;2023-05-08T09:34:23;97644.91;;;15.43;65.17
51261;BME280;61705;46.228;24.812;2023-05-08T09:37:10;97646.97;;;15.11;65.39
51261;BME280;61705;46.228;24.812;2023-05-08T09:39:37;97649.31;;;14.88;65.17
51261;BME280;61705;46.228;24.812;2023-05-08T09:42:11;97647.88;;;14.83;64.87
51261;BME280;61705;46.228;24.812;2023-05-08T09:44:56;97651.22;;;14.58;65.05
51261;BME280;61705;46.228;24.812;2023-05-08T09:47:23;97659.44;;;14.25;65.96
51261;BME280;61705;46.228;24.812;2023-05-08T09:50:07;97660.28;;;14.25;66.29
51261;BME280;61705;46.228;24.812;2023-05-08T09:52:35;97651.28;;;14.42;66.17
51261;BME280;61705;46.228;24.812;2023-05-08T09:55:07;97654.38;;;14.64;65.88
51261;BME280;61705;46.228;24.812;2023-05-08T09:57:36;97647.72;;;14.72;65.53
51261;BME280;61705;46.228;24.812;2023-05-08T10:00:07;97649.66;;;14.97;64.40
51261;BME280;61705;46.228;24.812;2023-05-08T10:02:37;97644.72;;;15.05;63.84
51261;BME280;61705;46.228;24.812;2023-05-08T10:05:25;97659.53;;;15.09;64.24
51261;BME280;61705;46.228;24.812;2023-05-08T10:07:53;97659.72;;;15.06;63.57
51261;BME280;61705;46.228;24.812;2023-05-08T10:12:54;97645.34;;;15.23;62.73
51261;BME280;61705;46.228;24.812;2023-05-08T10:15:28;97650.69;;;15.77;61.20
51261;BME280;61705;46.228;24.812;2023-05-08T10:18:03;97662.91;;;15.67;60.65
51261;BME280;61705;46.228;24.812;2023-05-08T10:20:32;97656.84;;;16.17;60.07
51261;BME280;61705;46.228;24.812;2023-05-08T10:23:01;97659.09;;;16.36;59.49
51261;BME280;61705;46.228;24.812;2023-05-08T10:25:33;97657.94;;;16.27;59.70
51261;BME280;61705;46.228;24.812;2023-05-08T10:28:15;97653.44;;;16.41;59.17
51261;BME280;61705;46.228;24.812;2023-05-08T10:30:47;97653.88;;;16.86;58.79
51261;BME280;61705;46.228;24.812;2023-05-08T10:33:19;97649.38;;;16.61;58.75
51261;BME280;61705;46.228;24.812;2023-05-08T10:35:47;97649.28;;;16.75;59.00
51261;BME280;61705;46.228;24.812;2023-05-08T10:38:15;97655.88;;;16.69;59.30
51261;BME280;61705;46.228;24.812;2023-05-08T10:40:42;97661.31;;;16.29;61.26
51261;BME280;61705;46.228;24.812;2023-05-08T10:43:10;97652.88;;;16.61;60.80
51261;BME280;61705;46.228;24.812;2023-05-08T10:45:38;97642.84;;;16.65;60.54
51261;BME280;61705;46.228;24.812;2023-05-08T10:48:30;97643.09;;;16.62;60.65
51261;BME280;61705;46.228;24.812;2023-05-08T10:51:09;97629.00;;;16.47;60.49
51261;BME280;61705;46.228;24.812;2023-05-08T10:54:03;97629.84;;;16.86;58.97
51261;BME280;61705;46.228;24.812;2023-05-08T10:56:31;97619.72;;;16.40;60.10
51261;BME280;61705;46.228;24.812;2023-05-08T10:58:58;97616.56;;;16.97;58.94
51261;BME280;61705;46.228;24.812;2023-05-08T11:01:25;97621.63;;;17.13;59.32
51261;BME280;61705;46.228;24.812;2023-05-08T11:03:52;97621.09;;;16.84;58.82
51261;BME280;61705;46.228;24.812;2023-05-08T11:06:44;97624.16;;;17.03;58.67
51261;BME280;61705;46.228;24.812;2023-05-08T11:09:19;97618.47;;;17.08;59.15
51261;BME280;61705;46.228;24.812;2023-05-08T11:11:55;97599.78;;;17.32;58.10
51261;BME280;61705;46.228;24.812;2023-05-08T11:14:25;97613.09;;;17.20;57.46
51261;BME280;61705;46.228;24.812;2023-05-08T11:19:20;97622.13;;;16.68;58.33
51261;BME280;61705;46.228;24.812;2023-05-08T11:22:18;97624.78;;;17.07;58.49
51261;BME280;61705;46.228;24.812;2023-05-08T11:24:54;97626.81;;;17.03;57.35
51261;BME280;61705;46.228;24.812;2023-05-08T11:27:41;97621.75;;;16.49;58.37
51261;BME280;61705;46.228;24.812;2023-05-08T11:38:14;97619.81;;;16.51;58.18
51261;BME280;61705;46.228;24.812;2023-05-08T11:46:05;97614.59;;;16.75;57.09
51261;BME280;61705;46.228;24.812;2023-05-08T11:48:34;97621.75;;;16.62;57.77
51261;BME280;61705;46.228;24.812;2023-05-08T11:51:02;97627.06;;;16.23;58.16
51261;BME280;61705;46.228;24.812;2023-05-08T11:53:29;97632.41;;;16.36;57.90
51261;BME280;61705;46.228;24.812;2023-05-08T11:55:57;97633.59;;;16.32;57.61
51261;BME280;61705;46.228;24.812;2023-05-08T11:58:25;97619.50;;;16.55;56.86
51261;BME280;61705;46.228;24.812;2023-05-08T12:00:52;97616.09;;;16.53;56.59
51261;BME280;61705;46.228;24.812;2023-05-08T12:03:21;97623.97;;;16.17;57.59
51261;BME280;61705;46.228;24.812;2023-05-08T12:05:49;97613.97;;;16.07;57.80
51261;BME280;61705;46.228;24.812;2023-05-08T12:08:17;97614.25;;;16.03;58.40
51261;BME280;61705;46.228;24.812;2023-05-08T12:10:55;97622.75;;;15.43;60.43
51261;BME280;61705;46.228;24.812;2023-05-08T12:13:24;97644.75;;;15.32;61.61
51261;BME280;61705;46.228;24.812;2023-05-08T12:15:56;97659.44;;;15.10;62.58
51261;BME280;61705;46.228;24.812;2023-05-08T12:18:24;97680.94;;;14.93;63.26
51261;BME280;61705;46.228;24.812;2023-05-08T12:20:56;97698.81;;;14.77;64.64
51261;BME280;61705;46.228;24.812;2023-05-08T12:23:24;97721.34;;;14.27;68.50
51261;BME280;61705;46.228;24.812;2023-05-08T12:25:52;97734.28;;;13.41;72.82
51261;BME280;61705;46.228;24.812;2023-05-08T12:28:21;97758.81;;;12.79;77.74
51261;BME280;61705;46.228;24.812;2023-05-08T12:30:48;97758.03;;;12.77;81.25
51261;BME280;61705;46.228;24.812;2023-05-08T12:33:16;97764.00;;;12.65;82.89
51261;BME280;61705;46.228;24.812;2023-05-08T12:35:43;97756.34;;;12.59;83.97
51261;BME280;61705;46.228;24.812;2023-05-08T12:38:10;97745.56;;;12.79;84.78
51261;BME280;61705;46.228;24.812;2023-05-08T12:40:45;97749.34;;;12.91;87.56
51261;BME280;61705;46.228;24.812;2023-05-08T12:43:13;97738.44;;;12.80;89.50
51261;BME280;61705;46.228;24.812;2023-05-08T12:45:41;97736.50;;;12.84;90.02
51261;BME280;61705;46.228;24.812;2023-05-08T12:48:10;97733.06;;;12.81;90.17
51261;BME280;61705;46.228;24.812;2023-05-08T12:50:41;97730.22;;;12.69;89.31
51261;BME280;61705;46.228;24.812;2023-05-08T12:55:38;97751.03;;;12.76;90.11
51261;BME280;61705;46.228;24.812;2023-05-08T12:58:10;97753.88;;;13.05;89.96
51261;BME280;61705;46.228;24.812;2023-05-08T13:00:49;97750.34;;;13.54;89.37
51261;BME280;61705;46.228;24.812;2023-05-08T13:03:22;97749.03;;;13.92;87.53
51261;BME280;61705;46.228;24.812;2023-05-08T13:05:52;97746.03;;;13.03;85.58
51261;BME280;61705;46.228;24.812;2023-05-08T13:08:19;97746.19;;;13.00;86.70
51261;BME280;61705;46.228;24.812;2023-05-08T13:13:18;97746.06;;;13.67;86.74
51261;BME280;61705;46.228;24.812;2023-05-08T13:15:50;97736.78;;;14.20;85.17
51261;BME280;61705;46.228;24.812;2023-05-08T13:18:24;97747.81;;;14.28;84.61
51261;BME280;61705;46.228;24.812;2023-05-08T13:20:53;97742.25;;;14.03;84.47
51261;BME280;61705;46.228;24.812;2023-05-08T13:23:22;97751.78;;;13.91;85.09
51261;BME280;61705;46.228;24.812;2023-05-08T13:25:50;97756.66;;;13.98;84.75
51261;BME280;61705;46.228;24.812;2023-05-08T13:28:16;97768.09;;;13.69;84.43
51261;BME280;61705;46.228;24.812;2023-05-08T13:30:43;97765.16;;;13.73;84.74
51261;BME280;61705;46.228;24.812;2023-05-08T13:33:10;97770.66;;;13.55;84.58
51261;BME280;61705;46.228;24.812;2023-05-08T13:35:37;97772.19;;;13.27;83.57
51261;BME280;61705;46.228;24.812;2023-05-08T13:38:03;97776.06;;;13.37;82.77
51261;BME280;61705;46.228;24.812;2023-05-08T13:40:31;97769.00;;;13.84;80.31
51261;BME280;61705;46.228;24.812;2023-05-08T13:42:58;97748.03;;;13.95;78.53
51261;BME280;61705;46.228;24.812;2023-05-08T13:45:25;97747.91;;;13.50;78.77
51261;BME280;61705;46.228;24.812;2023-05-08T13:47:51;97739.94;;;14.27;77.05